createdAt,value
2023-01-25T00:01:10.619Z,0.70
2023-01-25T00:03:12.349Z,0.70
2023-01-25T00:05:14.048Z,0.70
2023-01-25T00:07:15.730Z,0.70
2023-01-25T00:09:18.289Z,0.70
2023-01-25T00:11:20.709Z,0.60
2023-01-25T00:13:22.668Z,0.60
2023-01-25T00:15:24.548Z,0.60
2023-01-25T00:17:26.911Z,0.60
2023-01-25T00:19:28.574Z,0.60
2023-01-25T00:21:30.459Z,0.60
2023-01-25T00:23:35.064Z,0.60
2023-01-25T00:25:36.734Z,0.60
2023-01-25T00:27:38.438Z,0.60
2023-01-25T00:30:36.462Z,0.60
2023-01-25T00:33:34.662Z,0.60
2023-01-25T00:35:36.345Z,0.60
2023-01-25T00:37:42.521Z,0.60
2023-01-25T00:39:44.285Z,0.60
2023-01-25T00:41:46.296Z,0.60
2023-01-25T00:43:47.948Z,0.60
2023-01-25T00:45:49.803Z,0.60
2023-01-25T00:47:55.263Z,0.60
2023-01-25T00:49:56.982Z,0.50
2023-01-25T00:51:59.401Z,0.50
2023-01-25T00:54:01.126Z,0.50
2023-01-25T00:56:03.081Z,0.50
2023-01-25T00:58:04.770Z,0.60
2023-01-25T01:00:07.362Z,0.60
2023-01-25T01:02:09.055Z,0.60
2023-01-25T01:04:11.135Z,0.60
2023-01-25T01:06:13.045Z,0.60
2023-01-25T01:08:15.418Z,0.60
2023-01-25T01:10:17.258Z,0.60
2023-01-25T01:12:19.575Z,0.60
2023-01-25T01:15:17.706Z,0.60
2023-01-25T01:17:25.591Z,0.60
2023-01-25T01:19:27.325Z,0.60
2023-01-25T01:21:28.993Z,0.60
2023-01-25T01:23:32.286Z,0.60
2023-01-25T01:25:33.949Z,0.60
2023-01-25T01:27:35.655Z,0.60
2023-01-25T01:29:37.355Z,0.60
2023-01-25T01:31:39.201Z,0.70
2023-01-25T01:33:41.246Z,0.60
2023-01-25T01:35:43.262Z,0.60
2023-01-25T01:37:45.038Z,0.60
2023-01-25T01:39:46.849Z,0.60
2023-01-25T01:41:48.624Z,0.70
2023-01-25T01:43:50.442Z,0.60
2023-01-25T01:45:55.560Z,0.70
2023-01-25T01:47:57.312Z,0.60
2023-01-25T01:50:06.451Z,0.70
2023-01-25T01:52:32.458Z,0.70
2023-01-25T01:54:40.971Z,0.70
2023-01-25T01:56:51.572Z,0.70
2023-01-25T01:58:55.629Z,0.60
2023-01-25T02:00:57.809Z,0.60
2023-01-25T02:03:00.564Z,0.60
2023-01-25T02:05:07.141Z,0.60
2023-01-25T02:07:16.105Z,0.70
2023-01-25T02:09:21.708Z,0.60
2023-01-25T02:11:24.878Z,0.60
2023-01-25T02:13:28.283Z,0.60
2023-01-25T02:15:38.153Z,0.60
2023-01-25T02:17:41.650Z,0.60
2023-01-25T02:20:06.657Z,0.60
2023-01-25T02:22:13.468Z,0.60
2023-01-25T02:24:29.661Z,0.60
2023-01-25T02:26:31.408Z,0.60
2023-01-25T02:28:52.468Z,0.60
2023-01-25T02:30:54.214Z,0.60
2023-01-25T02:32:55.957Z,0.60
2023-01-25T02:34:57.645Z,0.60
2023-01-25T02:36:59.772Z,0.60
2023-01-25T02:39:08.919Z,0.60
2023-01-25T02:41:19.017Z,0.50
2023-01-25T02:43:21.227Z,0.50
2023-01-25T02:45:27.921Z,0.50
2023-01-25T02:47:29.751Z,0.50
2023-01-25T02:49:34.374Z,0.50
2023-01-25T02:51:40.793Z,0.50
2023-01-25T02:53:42.452Z,0.50
2023-01-25T02:55:44.118Z,0.50
2023-01-25T02:57:45.882Z,0.50
2023-01-25T02:59:47.537Z,0.50
2023-01-25T03:01:50.133Z,0.40
2023-01-25T03:03:51.959Z,0.40
2023-01-25T03:05:53.855Z,0.40
2023-01-25T03:07:55.593Z,0.30
2023-01-25T03:09:57.375Z,0.30
2023-01-25T03:11:59.210Z,0.40
2023-01-25T03:14:01.201Z,0.30
2023-01-25T03:16:06.224Z,0.40
2023-01-25T03:18:07.980Z,0.40
2023-01-25T03:20:10.383Z,0.40
2023-01-25T03:22:12.221Z,0.40
2023-01-25T03:24:14.246Z,0.40
2023-01-25T03:26:19.716Z,0.40
2023-01-25T03:28:21.422Z,0.40
2023-01-25T03:30:23.177Z,0.30
2023-01-25T03:32:24.976Z,0.30
2023-01-25T03:34:27.025Z,0.30
2023-01-25T03:36:28.944Z,0.30
2023-01-25T03:38:31.637Z,0.30
2023-01-25T03:40:33.302Z,0.30
2023-01-25T03:42:35.033Z,0.30
2023-01-25T03:44:36.812Z,0.30
2023-01-25T03:46:42.278Z,0.30
2023-01-25T03:48:44.022Z,0.30
2023-01-25T03:50:50.549Z,0.30
2023-01-25T03:52:58.876Z,0.30
2023-01-25T03:55:00.697Z,0.30
2023-01-25T03:57:02.550Z,0.30
2023-01-25T03:59:05.045Z,0.30
2023-01-25T04:01:07.905Z,0.30
2023-01-25T04:03:09.694Z,0.30
2023-01-25T04:05:11.544Z,0.30
2023-01-25T04:07:13.364Z,0.30
2023-01-25T04:09:15.111Z,0.30
2023-01-25T04:11:16.792Z,0.30
2023-01-25T04:13:18.699Z,0.30
2023-01-25T04:15:20.391Z,0.30
2023-01-25T04:17:22.486Z,0.20
2023-01-25T04:19:24.162Z,0.30
2023-01-25T04:21:25.916Z,0.30
2023-01-25T04:23:27.656Z,0.30
2023-01-25T04:25:29.687Z,0.30
2023-01-25T04:27:31.353Z,0.30
2023-01-25T04:29:41.156Z,0.30
2023-01-25T04:31:43.572Z,0.20
2023-01-25T04:33:45.298Z,0.20
2023-01-25T04:35:47.067Z,0.20
2023-01-25T04:37:56.549Z,0.20
2023-01-25T04:39:58.343Z,0.20
2023-01-25T04:42:00.010Z,0.20
2023-01-25T04:44:01.651Z,0.20
2023-01-25T04:46:03.632Z,0.20
2023-01-25T04:48:09.846Z,0.20
2023-01-25T04:50:11.987Z,0.20
2023-01-25T04:52:13.647Z,0.20
2023-01-25T04:54:15.693Z,0.20
2023-01-25T04:56:17.547Z,0.30
2023-01-25T04:58:19.952Z,0.30
2023-01-25T05:00:22.104Z,0.20
2023-01-25T05:02:23.953Z,0.20
2023-01-25T05:04:25.713Z,0.20
2023-01-25T05:06:27.597Z,0.20
2023-01-25T05:08:29.421Z,0.30
2023-01-25T05:10:31.472Z,0.30
2023-01-25T05:12:33.443Z,0.20
2023-01-25T05:14:35.928Z,0.30
2023-01-25T05:16:37.789Z,0.20
2023-01-25T05:18:48.395Z,0.20
2023-01-25T05:20:56.696Z,0.20
2023-01-25T05:22:58.561Z,0.20
2023-01-25T05:25:01.982Z,0.20
2023-01-25T05:27:04.145Z,0.30
2023-01-25T05:29:05.872Z,0.20
2023-01-25T05:31:07.680Z,0.20
2023-01-25T05:33:09.407Z,0.20
2023-01-25T05:35:11.442Z,0.20
2023-01-25T05:37:16.490Z,0.20
2023-01-25T05:39:18.262Z,0.20
2023-01-25T05:41:19.959Z,0.20
2023-01-25T05:43:23.669Z,0.20
2023-01-25T05:45:25.988Z,0.20
2023-01-25T05:47:27.871Z,0.20
2023-01-25T05:49:29.550Z,0.20
2023-01-25T05:51:31.239Z,0.20
2023-01-25T05:53:32.936Z,0.20
2023-01-25T05:55:36.841Z,0.20
2023-01-25T05:57:38.883Z,0.20
2023-01-25T05:59:40.568Z,0.20
2023-01-25T06:01:42.587Z,0.20
2023-01-25T06:03:45.638Z,0.20
2023-01-25T06:05:47.479Z,0.20
2023-01-25T06:07:49.203Z,0.20
2023-01-25T06:09:50.857Z,0.20
2023-01-25T06:11:52.563Z,0.20
2023-01-25T06:13:54.296Z,0.10
2023-01-25T06:15:56.904Z,0.10
2023-01-25T06:17:58.632Z,0.10
2023-01-25T06:20:00.368Z,0.20
2023-01-25T06:22:02.049Z,0.20
2023-01-25T06:24:04.864Z,0.10
2023-01-25T06:26:12.899Z,0.10
2023-01-25T06:28:14.789Z,0.10
2023-01-25T06:30:16.884Z,0.20
2023-01-25T06:32:18.773Z,0.20
2023-01-25T06:34:20.675Z,0.10
2023-01-25T06:36:23.224Z,0.10
2023-01-25T06:38:24.969Z,0.10
2023-01-25T06:40:28.303Z,0.10
2023-01-25T06:42:30.184Z,0.10
2023-01-25T06:44:31.935Z,0.10
2023-01-25T06:46:33.881Z,0.10
2023-01-25T06:48:35.949Z,0.10
2023-01-25T06:50:37.577Z,0.20
2023-01-25T06:52:39.357Z,0.20
2023-01-25T06:54:41.275Z,0.20
2023-01-25T06:56:42.991Z,0.20
2023-01-25T06:58:45.677Z,0.20
2023-01-25T07:00:47.391Z,0.20
2023-01-25T07:02:49.062Z,0.10
2023-01-25T07:04:50.887Z,0.20
2023-01-25T07:06:52.555Z,0.20
2023-01-25T07:08:54.281Z,0.20
2023-01-25T07:10:58.399Z,0.20
2023-01-25T07:13:00.145Z,0.20
2023-01-25T07:15:01.964Z,0.30
2023-01-25T07:17:04.086Z,0.20
2023-01-25T07:19:07.212Z,0.20
2023-01-25T07:21:21.170Z,0.30
2023-01-25T07:23:23.002Z,0.30
2023-01-25T07:25:24.676Z,0.30
2023-01-25T07:27:26.299Z,0.30
2023-01-25T07:29:28.044Z,0.30
2023-01-25T07:31:30.025Z,0.40
2023-01-25T07:33:32.937Z,0.40
2023-01-25T07:35:34.851Z,0.40
2023-01-25T07:37:36.984Z,0.40
2023-01-25T07:39:40.813Z,0.40
2023-01-25T07:41:42.514Z,0.40
2023-01-25T07:43:44.370Z,0.40
2023-01-25T07:45:48.782Z,0.40
2023-01-25T07:47:50.427Z,0.40
2023-01-25T07:49:52.343Z,0.40
2023-01-25T07:51:54.054Z,0.40
2023-01-25T07:54:01.303Z,0.40
2023-01-25T07:56:03.100Z,0.40
2023-01-25T07:58:05.037Z,0.50
2023-01-25T08:00:07.503Z,0.50
2023-01-25T08:02:11.917Z,0.50
2023-01-25T08:04:13.805Z,0.50
2023-01-25T08:06:15.696Z,0.60
2023-01-25T08:08:17.443Z,0.60
2023-01-25T08:10:19.233Z,0.60
2023-01-25T08:12:20.984Z,0.60
2023-01-25T08:14:22.753Z,0.60
2023-01-25T08:16:26.852Z,0.60
2023-01-25T08:18:28.507Z,0.60
2023-01-25T08:20:30.175Z,0.60
2023-01-25T08:22:31.876Z,0.70
2023-01-25T08:24:33.767Z,0.70
2023-01-25T08:26:36.311Z,0.70
2023-01-25T08:28:38.212Z,0.70
2023-01-25T08:30:48.686Z,0.80
2023-01-25T08:32:57.471Z,0.80
2023-01-25T08:34:59.169Z,0.80
2023-01-25T08:37:01.287Z,0.80
2023-01-25T08:39:07.858Z,0.80
2023-01-25T08:41:12.537Z,0.90
2023-01-25T08:43:14.277Z,0.90
2023-01-25T08:45:16.234Z,0.90
2023-01-25T08:47:18.031Z,0.90
2023-01-25T08:49:19.662Z,0.80
2023-01-25T08:51:22.154Z,0.90
2023-01-25T08:53:23.917Z,0.90
2023-01-25T08:55:25.660Z,0.90
2023-01-25T08:57:27.317Z,0.90
2023-01-25T08:59:29.248Z,1.00
2023-01-25T09:01:30.942Z,1.00
2023-01-25T09:03:36.695Z,0.90
2023-01-25T09:05:39.546Z,1.00
2023-01-25T09:07:41.402Z,1.00
2023-01-25T09:09:43.293Z,1.00
2023-01-25T09:11:45.174Z,1.00
2023-01-25T09:13:48.792Z,1.00
2023-01-25T09:15:50.410Z,1.00
2023-01-25T09:17:54.034Z,1.00
2023-01-25T09:19:55.770Z,0.90
2023-01-25T09:21:57.449Z,1.00
2023-01-25T09:24:07.915Z,1.00
2023-01-25T09:26:10.840Z,1.00
2023-01-25T09:28:12.490Z,0.90
2023-01-25T09:30:18.792Z,0.90
2023-01-25T09:32:20.970Z,1.00
2023-01-25T09:34:22.807Z,1.00
2023-01-25T09:36:24.659Z,0.90
2023-01-25T09:38:26.776Z,1.00
2023-01-25T09:40:38.651Z,1.00
2023-01-25T09:42:49.176Z,1.10
2023-01-25T09:45:06.621Z,1.00
2023-01-25T09:47:38.300Z,0.90
2023-01-25T09:49:55.104Z,0.90
2023-01-25T09:52:34.682Z,1.00
2023-01-25T09:54:47.063Z,1.00
2023-01-25T09:56:51.882Z,1.10
2023-01-25T09:59:03.855Z,1.10
2023-01-25T10:01:21.631Z,1.10
2023-01-25T10:03:40.512Z,1.10
2023-01-25T10:05:49.152Z,1.10
2023-01-25T10:08:03.236Z,1.10
2023-01-25T10:10:18.981Z,1.10
2023-01-25T10:12:23.916Z,1.10
2023-01-25T10:14:26.085Z,1.20
2023-01-25T10:16:43.924Z,1.20
2023-01-25T10:18:45.668Z,1.20
2023-01-25T10:20:56.615Z,1.10
2023-01-25T10:23:17.120Z,1.10
2023-01-25T10:25:29.501Z,1.10
2023-01-25T10:27:59.100Z,1.20
2023-01-25T10:30:20.935Z,1.20
2023-01-25T10:32:32.533Z,1.20
2023-01-25T10:34:55.410Z,1.20
2023-01-25T10:37:04.756Z,1.30
2023-01-25T10:39:07.872Z,1.30
2023-01-25T10:41:21.636Z,1.30
2023-01-25T10:43:23.733Z,1.30
2023-01-25T10:45:25.785Z,1.30
2023-01-25T10:47:35.151Z,1.30
2023-01-25T10:49:41.634Z,1.30
2023-01-25T10:51:43.331Z,1.30
2023-01-25T10:53:58.395Z,1.30
2023-01-25T10:56:00.479Z,1.30
2023-01-25T10:58:02.170Z,1.30
2023-01-25T11:00:12.823Z,1.20
2023-01-25T11:02:41.660Z,1.20
2023-01-25T11:04:47.267Z,1.10
2023-01-25T11:06:51.418Z,1.20
2023-01-25T11:08:53.198Z,1.20
2023-01-25T11:10:54.970Z,1.20
2023-01-25T11:13:15.217Z,1.30
2023-01-25T11:15:24.693Z,1.30
2023-01-25T11:17:31.615Z,1.30
2023-01-25T11:19:39.580Z,1.30
2023-01-25T11:21:55.151Z,1.30
2023-01-25T11:24:11.638Z,1.20
2023-01-25T11:26:17.837Z,1.20
2023-01-25T11:28:24.600Z,1.20
2023-01-25T11:30:26.324Z,1.20
2023-01-25T11:32:28.082Z,1.20
2023-01-25T11:34:30.503Z,1.10
2023-01-25T11:36:35.074Z,1.20
2023-01-25T11:38:39.299Z,1.10
2023-01-25T11:40:46.879Z,1.10
2023-01-25T11:42:58.432Z,1.10
2023-01-25T11:45:27.505Z,1.10
2023-01-25T11:47:44.901Z,1.10
2023-01-25T11:50:13.831Z,1.20
2023-01-25T11:52:46.443Z,1.20
2023-01-25T11:55:19.101Z,1.10
2023-01-25T11:57:55.779Z,1.10
2023-01-25T12:00:28.971Z,1.20
2023-01-25T12:02:39.681Z,1.20
2023-01-25T12:05:06.328Z,1.10
2023-01-25T12:07:32.076Z,1.10
2023-01-25T12:09:42.300Z,1.10
2023-01-25T12:12:05.624Z,1.10
2023-01-25T12:14:36.451Z,1.10
2023-01-25T12:16:52.979Z,0.90
2023-01-25T12:19:12.502Z,0.90
2023-01-25T12:21:34.082Z,0.90
2023-01-25T12:23:56.202Z,1.00
2023-01-25T12:26:12.888Z,1.00
2023-01-25T12:28:27.316Z,1.00
2023-01-25T12:30:50.821Z,1.00
2023-01-25T12:33:18.273Z,1.10
2023-01-25T12:35:34.351Z,1.00
2023-01-25T12:37:40.750Z,1.10
2023-01-25T12:40:01.614Z,1.00
2023-01-25T12:42:13.309Z,1.00
2023-01-25T12:44:18.350Z,1.10
2023-01-25T12:46:35.230Z,1.00
2023-01-25T12:48:41.857Z,1.00
2023-01-25T12:51:01.821Z,1.00
2023-01-25T12:53:22.260Z,1.00
2023-01-25T12:55:24.703Z,0.90
2023-01-25T12:57:29.902Z,0.90
2023-01-25T12:59:56.586Z,0.90
2023-01-25T13:02:19.898Z,0.90
2023-01-25T13:04:55.803Z,0.90
2023-01-25T13:07:03.205Z,0.90
2023-01-25T13:09:17.895Z,1.00
2023-01-25T13:11:31.511Z,1.00
2023-01-25T13:13:34.683Z,1.00
2023-01-25T13:15:43.688Z,1.00
2023-01-25T13:17:45.689Z,1.00
2023-01-25T13:19:47.830Z,0.90
2023-01-25T13:21:52.414Z,1.00
2023-01-25T13:24:20.680Z,0.90
2023-01-25T13:26:22.420Z,0.80
2023-01-25T13:28:47.569Z,0.80
2023-01-25T13:30:53.566Z,0.90
2023-01-25T13:33:01.441Z,0.80
2023-01-25T13:35:05.417Z,0.80
2023-01-25T13:37:25.842Z,0.90
2023-01-25T13:39:27.539Z,0.90
2023-01-25T13:41:29.266Z,0.90
2023-01-25T13:43:31.067Z,0.90
2023-01-25T13:45:38.169Z,0.80
2023-01-25T13:47:42.426Z,0.80
2023-01-25T13:49:56.553Z,0.90
2023-01-25T13:52:00.081Z,0.80
2023-01-25T13:54:02.090Z,0.80
2023-01-25T13:56:03.896Z,0.80
2023-01-25T13:58:15.259Z,0.70
2023-01-25T14:00:18.327Z,0.60
2023-01-25T14:02:24.777Z,0.60
2023-01-25T14:04:28.455Z,0.50
2023-01-25T14:06:34.087Z,0.50
2023-01-25T14:08:36.930Z,0.40
2023-01-25T14:10:38.623Z,0.50
2023-01-25T14:12:42.949Z,0.50
2023-01-25T14:14:44.930Z,0.50
2023-01-25T14:16:47.221Z,0.50
2023-01-25T14:18:49.846Z,0.50
2023-01-25T14:20:53.573Z,0.50
2023-01-25T14:22:55.468Z,0.40
2023-01-25T14:25:12.100Z,0.40
2023-01-25T14:27:14.965Z,0.40
2023-01-25T14:29:35.160Z,0.40
2023-01-25T14:31:38.238Z,0.40
2023-01-25T14:33:44.601Z,0.50
2023-01-25T14:35:59.980Z,0.50
2023-01-25T14:38:33.763Z,0.40
2023-01-25T14:40:35.769Z,0.30
2023-01-25T14:42:37.443Z,0.40
2023-01-25T14:44:39.552Z,0.40
2023-01-25T14:46:41.955Z,0.40
2023-01-25T14:48:45.152Z,0.50
2023-01-25T14:50:47.280Z,0.40
2023-01-25T14:52:49.841Z,0.40
2023-01-25T14:54:55.067Z,0.40
2023-01-25T14:57:00.713Z,0.40
2023-01-25T14:59:04.520Z,0.30
2023-01-25T15:01:06.389Z,0.30
2023-01-25T15:03:16.173Z,0.40
2023-01-25T15:05:33.160Z,0.40
2023-01-25T15:07:58.836Z,0.40
2023-01-25T15:10:20.561Z,0.40
2023-01-25T15:12:33.262Z,0.40
2023-01-25T15:14:48.298Z,0.30
2023-01-25T15:16:50.072Z,0.30
2023-01-25T15:18:56.435Z,0.30
2023-01-25T15:20:58.269Z,0.20
2023-01-25T15:23:22.144Z,0.20
2023-01-25T15:25:24.713Z,0.20
2023-01-25T15:27:26.451Z,0.20
2023-01-25T15:29:28.403Z,0.20
2023-01-25T15:31:33.778Z,0.30
2023-01-25T15:33:35.747Z,0.20
2023-01-25T15:35:37.441Z,0.30
2023-01-25T15:37:39.385Z,0.20
2023-01-25T15:39:41.134Z,0.20
2023-01-25T15:41:43.022Z,0.20
2023-01-25T15:43:45.755Z,0.20
2023-01-25T15:45:50.500Z,0.20
2023-01-25T15:47:52.134Z,0.20
2023-01-25T15:49:53.893Z,0.20
2023-01-25T15:51:56.213Z,0.10
2023-01-25T15:53:58.171Z,0.20
2023-01-25T15:56:15.533Z,0.10
2023-01-25T15:58:29.096Z,0.20
2023-01-25T16:00:30.844Z,0.20
2023-01-25T16:02:32.699Z,0.10
2023-01-25T16:04:34.407Z,0.20
2023-01-25T16:06:50.125Z,0.20
2023-01-25T16:08:52.086Z,0.20
2023-01-25T16:10:54.459Z,0.10
2023-01-25T16:12:56.354Z,0.10
2023-01-25T16:14:58.957Z,0.10
2023-01-25T16:17:04.182Z,0.10
2023-01-25T16:19:06.151Z,0.20
2023-01-25T16:21:12.485Z,0.20
2023-01-25T16:23:14.568Z,0.20
2023-01-25T16:25:16.487Z,0.20
2023-01-25T16:27:27.023Z,0.20
2023-01-25T16:29:28.721Z,0.10
2023-01-25T16:31:33.216Z,0.10
2023-01-25T16:33:35.589Z,0.10
2023-01-25T16:35:37.509Z,0.10
2023-01-25T16:37:39.319Z,0.00
2023-01-25T16:39:41.172Z,0.10
2023-01-25T16:41:42.876Z,0.10
2023-01-25T16:43:46.024Z,0.10
2023-01-25T16:45:49.179Z,0.10
2023-01-25T16:47:51.710Z,0.10
2023-01-25T16:49:53.464Z,0.00
2023-01-25T16:51:55.343Z,0.00
2023-01-25T16:53:58.435Z,0.10
2023-01-25T16:56:00.283Z,0.00
2023-01-25T16:58:02.214Z,0.00
2023-01-25T17:00:10.888Z,0.00
2023-01-25T17:02:13.025Z,0.10
2023-01-25T17:04:15.212Z,0.10
2023-01-25T17:06:31.237Z,0.10
2023-01-25T17:08:33.848Z,0.10
2023-01-25T17:10:37.738Z,0.10
2023-01-25T17:12:39.660Z,0.10
2023-01-25T17:14:41.935Z,0.00
2023-01-25T17:16:45.119Z,0.00
2023-01-25T17:18:47.859Z,0.00
2023-01-25T17:21:04.730Z,0.10
2023-01-25T17:23:06.792Z,0.10
2023-01-25T17:25:08.669Z,0.10
2023-01-25T17:27:10.660Z,0.10
2023-01-25T17:29:13.893Z,0.10
2023-01-25T17:31:18.566Z,0.10
2023-01-25T17:33:20.343Z,0.10
2023-01-25T17:35:22.269Z,0.10
2023-01-25T17:37:24.221Z,0.10
2023-01-25T17:39:25.887Z,0.10
2023-01-25T17:41:27.903Z,0.10
2023-01-25T17:43:29.648Z,-0.10
2023-01-25T17:45:38.323Z,-0.10
2023-01-25T17:47:40.198Z,-0.10
2023-01-25T17:49:42.055Z,-0.10
2023-01-25T17:51:44.204Z,-0.20
2023-01-25T17:53:46.248Z,-0.20
2023-01-25T17:55:49.065Z,-0.20
2023-01-25T17:57:51.473Z,-0.20
2023-01-25T17:59:53.147Z,-0.20
2023-01-25T18:01:54.886Z,-0.20
2023-01-25T18:03:57.871Z,-0.20
2023-01-25T18:06:00.629Z,-0.20
2023-01-25T18:08:02.649Z,-0.30
2023-01-25T18:10:05.274Z,-0.30
2023-01-25T18:12:07.409Z,-0.30
2023-01-25T18:14:15.285Z,-0.20
2023-01-25T18:16:18.737Z,-0.20
2023-01-25T18:18:20.699Z,-0.30
2023-01-25T18:20:22.598Z,-0.30
2023-01-25T18:22:24.253Z,-0.30
2023-01-25T18:24:32.549Z,-0.40
2023-01-25T18:26:37.106Z,-0.40
2023-01-25T18:28:38.950Z,-0.40
2023-01-25T18:30:51.804Z,-0.40
2023-01-25T18:32:53.702Z,-0.30
2023-01-25T18:34:55.405Z,-0.30
2023-01-25T18:36:59.411Z,-0.30
2023-01-25T18:39:01.448Z,-0.30
2023-01-25T18:41:04.698Z,-0.30
2023-01-25T18:43:06.419Z,-0.40
2023-01-25T18:45:09.438Z,-0.40
2023-01-25T18:47:13.913Z,-0.40
2023-01-25T18:49:15.677Z,-0.40
2023-01-25T18:51:17.903Z,-0.30
2023-01-25T18:53:20.049Z,-0.30
2023-01-25T18:55:21.925Z,-0.40
2023-01-25T18:57:24.033Z,-0.40
2023-01-25T18:59:26.284Z,-0.40
2023-01-25T19:01:28.124Z,-0.30
2023-01-25T19:03:30.536Z,-0.30
2023-01-25T19:05:32.204Z,-0.30
2023-01-25T19:07:34.058Z,-0.30
2023-01-25T19:09:36.585Z,-0.30
2023-01-25T19:11:38.176Z,-0.30
2023-01-25T19:13:41.292Z,-0.30
2023-01-25T19:15:43.371Z,-0.30
2023-01-25T19:17:45.096Z,-0.30
2023-01-25T19:19:47.065Z,-0.20
2023-01-25T19:21:48.841Z,-0.20
2023-01-25T19:23:51.353Z,-0.20
2023-01-25T19:25:54.770Z,-0.10
2023-01-25T19:27:56.455Z,-0.10
2023-01-25T19:29:58.178Z,-0.10
2023-01-25T19:31:59.943Z,-0.10
2023-01-25T19:34:04.366Z,-0.10
2023-01-25T19:36:08.192Z,-0.20
2023-01-25T19:38:10.209Z,-0.20
2023-01-25T19:40:12.929Z,-0.20
2023-01-25T19:42:18.398Z,-0.20
2023-01-25T19:44:20.887Z,-0.20
2023-01-25T19:46:25.012Z,-0.20
2023-01-25T19:48:32.175Z,-0.20
2023-01-25T19:50:33.958Z,-0.20
2023-01-25T19:52:36.432Z,-0.10
2023-01-25T19:54:38.171Z,-0.20
2023-01-25T19:56:41.647Z,-0.20
2023-01-25T19:58:45.380Z,-0.20
2023-01-25T20:00:47.617Z,-0.20
2023-01-25T20:02:49.346Z,-0.20
2023-01-25T20:04:52.001Z,-0.20
2023-01-25T20:06:53.942Z,-0.20
2023-01-25T20:08:55.842Z,-0.40
2023-01-25T20:10:59.549Z,-0.40
2023-01-25T20:13:01.532Z,-0.30
2023-01-25T20:15:03.464Z,-0.30
2023-01-25T20:17:06.829Z,-0.30
2023-01-25T20:19:11.929Z,-0.30
2023-01-25T20:21:22.005Z,-0.40
2023-01-25T20:23:24.467Z,-0.30
2023-01-25T20:25:26.210Z,-0.30
2023-01-25T20:27:27.917Z,-0.30
2023-01-25T20:29:29.699Z,-0.30
2023-01-25T20:31:34.089Z,-0.30
2023-01-25T20:33:35.924Z,-0.30
2023-01-25T20:35:37.979Z,-0.30
2023-01-25T20:37:39.798Z,-0.40
2023-01-25T20:39:41.471Z,-0.40
2023-01-25T20:41:43.428Z,-0.50
2023-01-25T20:43:52.543Z,-0.40
2023-01-25T20:45:54.288Z,-0.40
2023-01-25T20:47:56.106Z,-0.50
2023-01-25T20:49:57.806Z,-0.50
2023-01-25T20:51:59.523Z,-0.60
2023-01-25T20:54:01.327Z,-0.50
2023-01-25T20:56:03.664Z,-0.50
2023-01-25T20:58:05.630Z,-0.40
2023-01-25T21:00:09.578Z,-0.40
2023-01-25T21:02:11.389Z,-0.40
2023-01-25T21:04:13.170Z,-0.40
2023-01-25T21:06:15.353Z,-0.40
2023-01-25T21:08:18.373Z,-0.50
2023-01-25T21:10:20.071Z,-0.50
2023-01-25T21:12:22.087Z,-0.50
2023-01-25T21:14:23.963Z,-0.50
2023-01-25T21:16:25.749Z,-0.50
2023-01-25T21:18:36.000Z,-0.60
2023-01-25T21:20:38.152Z,-0.60
2023-01-25T21:22:40.007Z,-0.60
2023-01-25T21:24:41.716Z,-0.60
2023-01-25T21:26:43.550Z,-0.60
2023-01-25T21:28:45.561Z,-0.60
2023-01-25T21:30:47.276Z,-0.70
2023-01-25T21:32:48.961Z,-0.70
2023-01-25T21:34:50.635Z,-0.60
2023-01-25T21:36:52.708Z,-0.60
2023-01-25T21:38:55.174Z,-0.60
2023-01-25T21:41:02.004Z,-0.60
2023-01-25T21:43:03.981Z,-0.60
2023-01-25T21:45:25.020Z,-0.60
2023-01-25T21:47:30.897Z,-0.60
2023-01-25T21:49:51.705Z,-0.70
2023-01-25T21:51:57.684Z,-0.70
2023-01-25T21:53:59.376Z,-0.70
2023-01-25T21:56:01.073Z,-0.60
2023-01-25T21:58:02.818Z,-0.60
2023-01-25T22:00:05.511Z,-0.60
2023-01-25T22:02:12.036Z,-0.60
2023-01-25T22:04:15.230Z,-0.70
2023-01-25T22:06:18.127Z,-0.80
2023-01-25T22:08:20.219Z,-0.80
2023-01-25T22:10:22.220Z,-0.80
2023-01-25T22:12:25.625Z,-0.80
2023-01-25T22:14:27.667Z,-0.80
2023-01-25T22:16:30.169Z,-0.80
2023-01-25T22:18:35.628Z,-0.80
2023-01-25T22:20:37.582Z,-0.90
2023-01-25T22:22:39.275Z,-0.90
2023-01-25T22:24:40.955Z,-0.80
2023-01-25T22:26:45.861Z,-0.80
2023-01-25T22:28:47.616Z,-0.70
2023-01-25T22:30:49.449Z,-0.70
2023-01-25T22:32:51.125Z,-0.70
2023-01-25T22:34:52.799Z,-0.80
2023-01-25T22:36:54.710Z,-0.80
2023-01-25T22:38:57.252Z,-1.00
2023-01-25T22:41:29.896Z,-1.00
2023-01-25T22:43:32.103Z,-1.10
2023-01-25T22:45:34.095Z,-1.10
2023-01-25T22:47:35.896Z,-1.00
2023-01-25T22:49:37.578Z,-1.00
2023-01-25T22:51:39.285Z,-1.10
2023-01-25T22:53:41.414Z,-1.10
2023-01-25T22:55:43.295Z,-1.10
2023-01-25T22:57:45.113Z,-1.00
2023-01-25T22:59:47.219Z,-1.00
2023-01-25T23:01:49.132Z,-1.00
2023-01-25T23:03:51.966Z,-1.00
2023-01-25T23:06:01.542Z,-0.90
2023-01-25T23:08:03.513Z,-0.90
2023-01-25T23:10:05.841Z,-0.90
2023-01-25T23:12:07.624Z,-0.90
2023-01-25T23:14:30.436Z,-0.90
2023-01-25T23:16:33.302Z,-1.00
2023-01-25T23:18:51.336Z,-1.00
2023-01-25T23:20:53.085Z,-1.00
2023-01-25T23:22:54.782Z,-1.00
2023-01-25T23:24:56.773Z,-0.90
2023-01-25T23:26:58.523Z,-0.90
2023-01-25T23:29:00.277Z,-1.00
2023-01-25T23:31:17.946Z,-1.00
2023-01-25T23:33:19.814Z,-1.00
2023-01-25T23:35:22.052Z,-1.00
2023-01-25T23:37:24.025Z,-1.00
2023-01-25T23:39:26.809Z,-1.00
2023-01-25T23:41:29.579Z,-1.00
2023-01-25T23:43:31.757Z,-1.00
2023-01-25T23:45:34.125Z,-1.00
2023-01-25T23:47:35.999Z,-1.00
2023-01-25T23:49:37.944Z,-1.00
2023-01-25T23:51:40.042Z,-0.90
2023-01-25T23:53:42.198Z,-0.90
2023-01-25T23:55:58.810Z,-0.90
2023-01-25T23:58:00.668Z,-1.00
